sensor_id;sensor_type;location;lat;lon;timestamp;pressure;altitude;pressure_sealevel;temperature;humidity
2036;BME280;23642;42.658;23.350;2024-03-17T00:00:02;47039.38;;;-146.31;100.00
2036;BME280;23642;42.658;23.350;2024-03-17T00:03:05;46903.41;;;-146.31;100.00
2036;BME280;23642;42.658;23.350;2024-03-17T00:05:48;46837.47;;;-146.31;100.00
2036;BME280;23642;42.658;23.350;2024-03-17T00:08:36;46767.44;;;-146.31;100.00
2036;BME280;23642;42.658;23.350;2024-03-17T00:11:25;46833.34;;;-146.31;100.00
2036;BME280;23642;42.658;23.350;2024-03-17T00:14:20;46777.72;;;-146.31;100.00
2036;BME280;23642;42.658;23.350;2024-03-17T00:17:12;46631.47;;;-146.31;100.00
2036;BME280;23642;42.658;23.350;2024-03-17T00:19:47;46549.06;;;-146.31;100.00
2036;BME280;23642;42.658;23.350;2024-03-17T00:22:31;46565.53;;;-146.31;100.00
2036;BME280;23642;42.658;23.350;2024-03-17T00:25:20;46458.44;;;-146.31;100.00
2036;BME280;23642;42.658;23.350;2024-03-17T00:28:21;46174.16;;;-146.31;100.00
2036;BME280;23642;42.658;23.350;2024-03-17T00:30:50;45982.59;;;-146.31;100.00
2036;BME280;23642;42.658;23.350;2024-03-17T00:33:44;45984.66;;;-146.31;100.00
2036;BME280;23642;42.658;23.350;2024-03-17T00:36:41;46009.38;;;-146.31;100.00
2036;BME280;23642;42.658;23.350;2024-03-17T00:39:25;45994.97;;;-146.31;100.00
2036;BME280;23642;42.658;23.350;2024-03-17T00:42:03;45951.72;;;-146.31;100.00
2036;BME280;23642;42.658;23.350;2024-03-17T00:44:50;45824.00;;;-146.31;100.00
2036;BME280;23642;42.658;23.350;2024-03-17T00:47:42;45821.94;;;-146.31;100.00
2036;BME280;23642;42.658;23.350;2024-03-17T00:50:34;45867.25;;;-146.31;100.00
2036;BME280;23642;42.658;23.350;2024-03-17T00:53:43;45727.22;;;-146.31;100.00
2036;BME280;23642;42.658;23.350;2024-03-17T00:56:53;45496.56;;;-146.31;100.00
2036;BME280;23642;42.658;23.350;2024-03-17T00:59:29;45360.66;;;-146.31;100.00
2036;BME280;23642;42.658;23.350;2024-03-17T01:02:02;45492.44;;;-146.31;100.00
2036;BME280;23642;42.658;23.350;2024-03-17T01:04:55;45688.09;;;-146.31;100.00
2036;BME280;23642;42.658;23.350;2024-03-17T01:07:43;45803.41;;;-146.31;100.00
2036;BME280;23642;42.658;23.350;2024-03-17T01:10:39;45819.91;;;-146.31;100.00
2036;BME280;23642;42.658;23.350;2024-03-17T01:13:26;45807.53;;;-146.31;100.00
2036;BME280;23642;42.658;23.350;2024-03-17T01:16:04;45896.09;;;-146.31;100.00
2036;BME280;23642;42.658;23.350;2024-03-17T01:18:40;45856.97;;;-146.31;100.00
2036;BME280;23642;42.658;23.350;2024-03-17T01:21:44;45931.13;;;-146.31;100.00
2036;BME280;23642;42.658;23.350;2024-03-17T01:24:31;45875.50;;;-146.31;100.00
2036;BME280;23642;42.658;23.350;2024-03-17T01:27:28;45824.00;;;-146.31;100.00
2036;BME280;23642;42.658;23.350;2024-03-17T01:29:58;45737.50;;;-146.31;100.00
2036;BME280;23642;42.658;23.350;2024-03-17T01:32:40;45786.94;;;-146.31;100.00
2036;BME280;23642;42.658;23.350;2024-03-17T01:38:37;45941.41;;;-146.31;100.00
2036;BME280;23642;42.658;23.350;2024-03-17T01:41:32;46019.69;;;-146.31;100.00
2036;BME280;23642;42.658;23.350;2024-03-17T01:44:35;46042.34;;;-146.31;100.00
2036;BME280;23642;42.658;23.350;2024-03-17T01:47:25;45978.50;;;-146.31;100.00
2036;BME280;23642;42.658;23.350;2024-03-17T01:50:12;45908.47;;;-146.31;100.00
2036;BME280;23642;42.658;23.350;2024-03-17T01:52:53;45762.22;;;-146.31;100.00
2036;BME280;23642;42.658;23.350;2024-03-17T01:55:37;45609.81;;;-146.31;100.00
2036;BME280;23642;42.658;23.350;2024-03-17T01:58:20;45506.84;;;-146.31;100.00
2036;BME280;23642;42.658;23.350;2024-03-17T02:01:07;45399.78;;;-146.31;100.00
2036;BME280;23642;42.658;23.350;2024-03-17T02:03:53;45239.16;;;-146.31;100.00
2036;BME280;23642;42.658;23.350;2024-03-17T02:10:13;44547.31;;;-146.31;100.00
2036;BME280;23642;42.658;23.350;2024-03-17T02:12:58;44205.56;;;-146.31;100.00
2036;BME280;23642;42.658;23.350;2024-03-17T02:15:52;43859.75;;;-146.31;100.00
2036;BME280;23642;42.658;23.350;2024-03-17T02:18:34;43553.06;;;-146.31;100.00
2036;BME280;23642;42.658;23.350;2024-03-17T02:21:22;43293.75;;;-146.31;100.00
2036;BME280;23642;42.658;23.350;2024-03-17T02:24:24;42931.56;;;-146.31;100.00
2036;BME280;23642;42.658;23.350;2024-03-17T02:27:12;42653.75;;;-146.31;100.00
2036;BME280;23642;42.658;23.350;2024-03-17T02:29:56;42437.72;;;-146.31;100.00
2036;BME280;23642;42.658;23.350;2024-03-17T02:33:08;42217.56;;;-146.31;100.00
2036;BME280;23642;42.658;23.350;2024-03-17T02:38:14;42001.56;;;-146.31;100.00
2036;BME280;23642;42.658;23.350;2024-03-17T02:39:53;41787.59;;;-146.31;100.00
2036;BME280;23642;42.658;23.350;2024-03-17T02:43:11;41623.03;;;-146.31;100.00
2036;BME280;23642;42.658;23.350;2024-03-17T02:46:03;41557.22;;;-146.31;100.00
2036;BME280;23642;42.658;23.350;2024-03-17T02:59:33;41209.63;;;-146.31;100.00
2036;BME280;23642;42.658;23.350;2024-03-17T03:02:34;41224.00;;;-146.31;100.00
2036;BME280;23642;42.658;23.350;2024-03-17T03:05:15;41158.19;;;-146.31;100.00
2036;BME280;23642;42.658;23.350;2024-03-17T03:08:16;41010.13;;;-146.31;100.00
2036;BME280;23642;42.658;23.350;2024-03-17T03:11:11;40934.03;;;-146.31;100.00
2036;BME280;23642;42.658;23.350;2024-03-17T03:17:30;40734.53;;;-146.31;100.00
2036;BME280;23642;42.658;23.350;2024-03-17T03:20:54;40600.88;;;-146.31;100.00
2036;BME280;23642;42.658;23.350;2024-03-17T03:23:58;40407.56;;;-146.31;100.00
2036;BME280;23642;42.658;23.350;2024-03-17T03:26:57;40298.59;;;-146.31;100.00
2036;BME280;23642;42.658;23.350;2024-03-17T03:29:51;40160.84;;;-146.31;100.00
2036;BME280;23642;42.658;23.350;2024-03-17T03:32:47;40047.75;;;-146.31;100.00
2036;BME280;23642;42.658;23.350;2024-03-17T03:35:27;39910.00;;;-146.31;100.00
2036;BME280;23642;42.658;23.350;2024-03-17T03:38:20;39809.25;;;-146.31;100.00
2036;BME280;23642;42.658;23.350;2024-03-17T03:51:52;39628.34;;;-146.31;100.00
2036;BME280;23642;42.658;23.350;2024-03-17T03:55:24;39622.19;;;-146.31;100.00
2036;BME280;23642;42.658;23.350;2024-03-17T03:58:13;39585.16;;;-146.31;100.00
2036;BME280;23642;42.658;23.350;2024-03-17T04:00:51;39566.66;;;-146.31;100.00
2036;BME280;23642;42.658;23.350;2024-03-17T04:03:50;39474.16;;;-146.31;100.00
2036;BME280;23642;42.658;23.350;2024-03-17T04:09:59;39332.31;;;-146.31;100.00
2036;BME280;23642;42.658;23.350;2024-03-17T04:15:51;39227.50;;;-146.31;100.00
2036;BME280;23642;42.658;23.350;2024-03-17T04:19:00;39190.50;;;-146.31;100.00
2036;BME280;23642;42.658;23.350;2024-03-17T04:21:47;39110.31;;;-146.31;100.00
2036;BME280;23642;42.658;23.350;2024-03-17T04:24:39;39067.16;;;-146.31;100.00
2036;BME280;23642;42.658;23.350;2024-03-17T04:30:49;38968.50;;;-146.31;100.00
2036;BME280;23642;42.658;23.350;2024-03-17T04:34:09;38904.78;;;-146.31;100.00
2036;BME280;23642;42.658;23.350;2024-03-17T04:37:39;38941.78;;;-146.31;100.00
2036;BME280;23642;42.658;23.350;2024-03-17T04:40:07;38927.41;;;-146.31;100.00
2036;BME280;23642;42.658;23.350;2024-03-17T04:43:50;38927.41;;;-146.31;100.00
2036;BME280;23642;42.658;23.350;2024-03-17T04:56:23;38876.00;;;-146.31;100.00
2036;BME280;23642;42.658;23.350;2024-03-17T04:59:26;38781.47;;;-146.31;100.00
2036;BME280;23642;42.658;23.350;2024-03-17T05:03:34;38783.53;;;-146.31;100.00
2036;BME280;23642;42.658;23.350;2024-03-17T05:06:11;38787.63;;;-146.31;100.00
2036;BME280;23642;42.658;23.350;2024-03-17T05:19:45;38750.63;;;-146.31;100.00
2036;BME280;23642;42.658;23.350;2024-03-17T05:22:24;38925.34;;;-146.31;100.00
2036;BME280;23642;42.658;23.350;2024-03-17T05:25:39;39239.81;;;-146.31;100.00
2036;BME280;23642;42.658;23.350;2024-03-17T05:28:44;39768.13;;;-146.31;100.00
2036;BME280;23642;42.658;23.350;2024-03-17T05:48:05;45424.47;;;-146.31;100.00
2036;BME280;23642;42.658;23.350;2024-03-17T05:51:14;45729.28;;;-146.31;100.00
2036;BME280;23642;42.658;23.350;2024-03-17T05:55:09;46044.41;;;-146.31;100.00
2036;BME280;23642;42.658;23.350;2024-03-17T06:01:01;46285.38;;;-146.31;100.00
2036;BME280;23642;42.658;23.350;2024-03-17T06:07:26;46763.31;;;-146.31;96.78
2036;BME280;23642;42.658;23.350;2024-03-17T06:13:37;47191.84;;;-146.31;94.80
2036;BME280;23642;42.658;23.350;2024-03-17T06:16:36;47381.41;;;-146.31;93.34
2036;BME280;23642;42.658;23.350;2024-03-17T06:19:36;47570.97;;;-146.31;92.67
2036;BME280;23642;42.658;23.350;2024-03-17T06:22:13;47711.13;;;-146.31;91.92
2036;BME280;23642;42.658;23.350;2024-03-17T06:24:57;47855.38;;;-146.31;91.49
2036;BME280;23642;42.658;23.350;2024-03-17T06:27:27;48139.78;;;-146.31;89.39
2036;BME280;23642;42.658;23.350;2024-03-17T06:29:58;48321.13;;;-146.31;87.65
2036;BME280;23642;42.658;23.350;2024-03-17T06:32:42;48463.34;;;-146.31;87.60
2036;BME280;23642;42.658;23.350;2024-03-17T06:35:36;48533.44;;;-146.31;87.87
2036;BME280;23642;42.658;23.350;2024-03-17T06:38:40;48554.06;;;-146.31;88.51
2036;BME280;23642;42.658;23.350;2024-03-17T06:45:15;48708.66;;;-146.31;87.66
2036;BME280;23642;42.658;23.350;2024-03-17T06:48:04;48803.47;;;-146.31;86.24
2036;BME280;23642;42.658;23.350;2024-03-17T06:58:13;48943.66;;;-146.31;84.47
2036;BME280;23642;42.658;23.350;2024-03-17T07:07:16;49164.25;;;-146.31;79.71
2036;BME280;23642;42.658;23.350;2024-03-17T07:10:22;49302.38;;;-146.31;79.91
2036;BME280;23642;42.658;23.350;2024-03-17T07:13:19;49302.38;;;-146.31;83.52
2036;BME280;23642;42.658;23.350;2024-03-17T07:16:29;49331.22;;;-146.31;79.81
2036;BME280;23642;42.658;23.350;2024-03-17T07:22:41;49512.66;;;-146.31;74.86
2036;BME280;23642;42.658;23.350;2024-03-17T07:25:12;49706.47;;;-146.31;71.66
2036;BME280;23642;42.658;23.350;2024-03-17T07:27:44;49755.97;;;-146.31;71.47
2036;BME280;23642;42.658;23.350;2024-03-17T07:30:28;49830.19;;;-146.31;70.88
2036;BME280;23642;42.658;23.350;2024-03-17T07:33:16;49945.69;;;-146.31;70.12
2036;BME280;23642;42.658;23.350;2024-03-17T07:36:10;50015.78;;;-146.31;70.96
2036;BME280;23642;42.658;23.350;2024-03-17T07:48:58;50172.50;;;-146.31;71.64
2036;BME280;23642;42.658;23.350;2024-03-17T07:51:44;50228.19;;;-146.31;72.68
2036;BME280;23642;42.658;23.350;2024-03-17T07:54:51;50259.13;;;-146.31;73.45
2036;BME280;23642;42.658;23.350;2024-03-17T07:58:00;50273.56;;;-146.31;74.91
2036;BME280;23642;42.658;23.350;2024-03-17T08:01:08;50283.88;;;-146.31;73.70
2036;BME280;23642;42.658;23.350;2024-03-17T08:03:53;50275.63;;;-146.31;74.09
2036;BME280;23642;42.658;23.350;2024-03-17T08:07:08;50314.81;;;-146.31;70.00
2036;BME280;23642;42.658;23.350;2024-03-17T08:10:06;50337.50;;;-146.31;70.91
2036;BME280;23642;42.658;23.350;2024-03-17T08:12:53;50321.00;;;-146.31;70.23
2036;BME280;23642;42.658;23.350;2024-03-17T08:15:55;50374.63;;;-146.31;69.82
2036;BME280;23642;42.658;23.350;2024-03-17T08:25:17;50337.50;;;-146.31;69.84
2036;BME280;23642;42.658;23.350;2024-03-17T08:31:31;50440.63;;;-146.31;69.25
2036;BME280;23642;42.658;23.350;2024-03-17T08:34:26;50463.31;;;-146.31;68.35
2036;BME280;23642;42.658;23.350;2024-03-17T08:38:17;50463.31;;;-146.31;69.72
2036;BME280;23642;42.658;23.350;2024-03-17T08:40:38;50496.31;;;-146.31;69.02
2036;BME280;23642;42.658;23.350;2024-03-17T08:43:28;50490.13;;;-146.31;69.66
2036;BME280;23642;42.658;23.350;2024-03-17T08:46:06;50457.13;;;-146.31;68.22
2036;BME280;23642;42.658;23.350;2024-03-17T08:48:49;50490.13;;;-146.31;69.10
2036;BME280;23642;42.658;23.350;2024-03-17T08:51:37;50514.88;;;-146.31;70.70
2036;BME280;23642;42.658;23.350;2024-03-17T08:58:33;50469.50;;;-146.31;68.95
2036;BME280;23642;42.658;23.350;2024-03-17T09:01:20;50475.69;;;-146.31;68.25
2036;BME280;23642;42.658;23.350;2024-03-17T09:04:07;50488.06;;;-146.31;68.58
2036;BME280;23642;42.658;23.350;2024-03-17T09:07:23;50486.00;;;-146.31;67.16
2036;BME280;23642;42.658;23.350;2024-03-17T09:10:13;50514.88;;;-146.31;66.76
2036;BME280;23642;42.658;23.350;2024-03-17T09:13:04;50568.50;;;-146.31;67.46
2036;BME280;23642;42.658;23.350;2024-03-17T09:19:11;50564.38;;;-146.31;70.63
2036;BME280;23642;42.658;23.350;2024-03-17T09:22:02;50508.69;;;-146.31;70.78
2036;BME280;23642;42.658;23.350;2024-03-17T09:24:39;50498.38;;;-146.31;67.50
2036;BME280;23642;42.658;23.350;2024-03-17T09:27:25;50514.88;;;-146.31;66.43
2036;BME280;23642;42.658;23.350;2024-03-17T09:33:05;50564.38;;;-146.31;64.15
2036;BME280;23642;42.658;23.350;2024-03-17T09:36:18;50706.69;;;-146.31;63.71
2036;BME280;23642;42.658;23.350;2024-03-17T09:38:57;50675.75;;;-146.31;62.76
2036;BME280;23642;42.658;23.350;2024-03-17T09:42:15;50849.00;;;-146.31;58.63
2036;BME280;23642;42.658;23.350;2024-03-17T09:44:38;50783.00;;;-146.31;57.78
2036;BME280;23642;42.658;23.350;2024-03-17T09:47:19;50813.94;;;-146.31;54.53
2036;BME280;23642;42.658;23.350;2024-03-17T09:50:26;50904.69;;;-146.31;52.45
2036;BME280;23642;42.658;23.350;2024-03-17T09:53:26;51331.69;;;-146.31;47.63
2036;BME280;23642;42.658;23.350;2024-03-17T09:56:14;51649.41;;;-146.31;46.97
2036;BME280;23642;42.658;23.350;2024-03-17T09:59:22;51797.94;;;-146.31;47.43
2036;BME280;23642;42.658;23.350;2024-03-17T10:02:17;52039.34;;;-146.31;46.19
2036;BME280;23642;42.658;23.350;2024-03-17T10:05:02;52410.78;;;-146.31;44.36
2036;BME280;23642;42.658;23.350;2024-03-17T10:07:58;52447.91;;;-146.31;44.76
2036;BME280;23642;42.658;23.350;2024-03-17T10:13:45;52615.06;;;-146.31;45.07
2036;BME280;23642;42.658;23.350;2024-03-17T10:19:26;52652.22;;;-146.31;45.81
2036;BME280;23642;42.658;23.350;2024-03-17T10:22:17;52724.47;;;-146.31;46.43
2036;BME280;23642;42.658;23.350;2024-03-17T10:25:08;52751.28;;;-146.31;47.73
2036;BME280;23642;42.658;23.350;2024-03-17T10:27:49;52734.78;;;-146.31;47.92
2036;BME280;23642;42.658;23.350;2024-03-17T10:31:02;52765.72;;;-146.31;45.91
2036;BME280;23642;42.658;23.350;2024-03-17T10:34:14;52904.00;;;-146.31;46.01
2036;BME280;23642;42.658;23.350;2024-03-17T10:37:45;52767.78;;;-146.31;44.37
2036;BME280;23642;42.658;23.350;2024-03-17T10:40:29;52809.06;;;-146.31;44.48
2036;BME280;23642;42.658;23.350;2024-03-17T10:43:21;52972.13;;;-146.31;44.72
2036;BME280;23642;42.658;23.350;2024-03-17T10:46:21;53015.47;;;-146.31;42.71
2036;BME280;23642;42.658;23.350;2024-03-17T10:49:20;53254.88;;;-146.31;39.75
2036;BME280;23642;42.658;23.350;2024-03-17T10:55:41;53391.13;;;-146.31;41.59
2036;BME280;23642;42.658;23.350;2024-03-17T10:59:38;53413.84;;;-146.31;41.06
2036;BME280;23642;42.658;23.350;2024-03-17T11:02:16;53560.41;;;-146.31;39.57
2036;BME280;23642;42.658;23.350;2024-03-17T11:05:19;53638.84;;;-146.31;39.09
2036;BME280;23642;42.658;23.350;2024-03-17T11:08:58;53698.69;;;-146.31;37.55
2036;BME280;23642;42.658;23.350;2024-03-17T11:11:53;53671.88;;;-146.31;38.90
2036;BME280;23642;42.658;23.350;2024-03-17T11:14:59;53626.44;;;-146.31;42.19
2036;BME280;23642;42.658;23.350;2024-03-17T11:21:43;53645.03;;;-146.31;41.94
2036;BME280;23642;42.658;23.350;2024-03-17T11:24:46;53659.47;;;-146.31;42.01
2036;BME280;23642;42.658;23.350;2024-03-17T11:27:53;53624.38;;;-146.31;46.19
2036;BME280;23642;42.658;23.350;2024-03-17T11:30:46;53564.53;;;-146.31;45.79
2036;BME280;23642;42.658;23.350;2024-03-17T11:34:42;53506.72;;;-146.31;47.26
2036;BME280;23642;42.658;23.350;2024-03-17T11:36:48;53494.34;;;-146.31;47.00
2036;BME280;23642;42.658;23.350;2024-03-17T11:39:57;53500.53;;;-146.31;48.01
2036;BME280;23642;42.658;23.350;2024-03-17T11:42:31;53490.22;;;-146.31;46.95
2036;BME280;23642;42.658;23.350;2024-03-17T11:45:52;53585.16;;;-146.31;45.27
2036;BME280;23642;42.658;23.350;2024-03-17T11:48:45;53564.53;;;-146.31;43.56
2036;BME280;23642;42.658;23.350;2024-03-17T11:51:29;53663.59;;;-146.31;43.86
2036;BME280;23642;42.658;23.350;2024-03-17T11:54:39;53671.88;;;-146.31;42.67
2036;BME280;23642;42.658;23.350;2024-03-17T11:57:32;53713.16;;;-146.31;42.59
2036;BME280;23642;42.658;23.350;2024-03-17T12:00:24;53661.53;;;-146.31;42.47
2036;BME280;23642;42.658;23.350;2024-03-17T12:03:14;53717.28;;;-146.31;41.40
2036;BME280;23642;42.658;23.350;2024-03-17T12:06:28;53729.66;;;-146.31;41.46
2036;BME280;23642;42.658;23.350;2024-03-17T12:13:05;53814.31;;;-146.31;41.07
2036;BME280;23642;42.658;23.350;2024-03-17T12:16:15;53898.94;;;-146.31;42.44
2036;BME280;23642;42.658;23.350;2024-03-17T12:19:07;53849.41;;;-146.31;42.44
2036;BME280;23642;42.658;23.350;2024-03-17T12:22:17;53746.19;;;-146.31;42.15
2036;BME280;23642;42.658;23.350;2024-03-17T12:25:06;53867.97;;;-146.31;42.62
2036;BME280;23642;42.658;23.350;2024-03-17T12:31:35;53956.75;;;-146.31;44.65
2036;BME280;23642;42.658;23.350;2024-03-17T12:34:24;53898.94;;;-146.31;45.68
2036;BME280;23642;42.658;23.350;2024-03-17T12:37:15;53865.91;;;-146.31;45.31
2036;BME280;23642;42.658;23.350;2024-03-17T12:43:15;53814.31;;;-146.31;47.94
2036;BME280;23642;42.658;23.350;2024-03-17T12:46:38;53801.91;;;-146.31;48.36
2036;BME280;23642;42.658;23.350;2024-03-17T12:49:43;53789.53;;;-146.31;49.02
2036;BME280;23642;42.658;23.350;2024-03-17T12:52:38;53853.53;;;-146.31;49.34
2036;BME280;23642;42.658;23.350;2024-03-17T12:59:15;53688.38;;;-146.31;47.60
2036;BME280;23642;42.658;23.350;2024-03-17T13:03:33;53680.13;;;-146.31;48.01
2036;BME280;23642;42.658;23.350;2024-03-17T13:12:24;53651.22;;;-146.31;50.65
2036;BME280;23642;42.658;23.350;2024-03-17T13:15:16;53713.16;;;-146.31;51.22
2036;BME280;23642;42.658;23.350;2024-03-17T13:18:03;53733.78;;;-146.31;52.26
2036;BME280;23642;42.658;23.350;2024-03-17T13:21:39;53653.28;;;-146.31;52.41
2036;BME280;23642;42.658;23.350;2024-03-17T13:27:35;53632.66;;;-146.31;52.51
2036;BME280;23642;42.658;23.350;2024-03-17T13:30:25;53636.78;;;-146.31;52.27
2036;BME280;23642;42.658;23.350;2024-03-17T13:33:11;53601.69;;;-146.31;52.36
2036;BME280;23642;42.658;23.350;2024-03-17T13:36:00;53556.25;;;-146.31;52.79
2036;BME280;23642;42.658;23.350;2024-03-17T13:38:45;53554.19;;;-146.31;53.30
2036;BME280;23642;42.658;23.350;2024-03-17T13:41:49;53609.94;;;-146.31;54.01
2036;BME280;23642;42.658;23.350;2024-03-17T13:45:02;53609.94;;;-146.31;53.46
2036;BME280;23642;42.658;23.350;2024-03-17T13:48:00;53638.84;;;-146.31;54.07
2036;BME280;23642;42.658;23.350;2024-03-17T13:54:41;53624.38;;;-146.31;53.07
2036;BME280;23642;42.658;23.350;2024-03-17T13:57:57;53704.91;;;-146.31;54.14
2036;BME280;23642;42.658;23.350;2024-03-17T14:01:06;53680.13;;;-146.31;55.41
2036;BME280;23642;42.658;23.350;2024-03-17T14:07:46;53614.06;;;-146.31;56.52
2036;BME280;23642;42.658;23.350;2024-03-17T14:14:13;53624.38;;;-146.31;56.43
2036;BME280;23642;42.658;23.350;2024-03-17T14:23:57;53587.22;;;-146.31;55.84
2036;BME280;23642;42.658;23.350;2024-03-17T14:31:46;53585.16;;;-146.31;56.68
2036;BME280;23642;42.658;23.350;2024-03-17T14:33:57;53585.16;;;-146.31;56.76
2036;BME280;23642;42.658;23.350;2024-03-17T14:36:39;53570.72;;;-146.31;56.63
2036;BME280;23642;42.658;23.350;2024-03-17T14:46:10;53502.59;;;-146.31;57.86
2036;BME280;23642;42.658;23.350;2024-03-17T14:48:45;53467.50;;;-146.31;58.23
2036;BME280;23642;42.658;23.350;2024-03-17T14:52:15;53479.88;;;-146.31;57.09
2036;BME280;23642;42.658;23.350;2024-03-17T14:55:03;53531.50;;;-146.31;56.57
2036;BME280;23642;42.658;23.350;2024-03-17T14:57:52;53523.22;;;-146.31;57.93
2036;BME280;23642;42.658;23.350;2024-03-17T15:00:40;53469.56;;;-146.31;58.88
2036;BME280;23642;42.658;23.350;2024-03-17T15:03:14;53442.72;;;-146.31;59.30
2036;BME280;23642;42.658;23.350;2024-03-17T15:06:54;53382.88;;;-146.31;59.07
2036;BME280;23642;42.658;23.350;2024-03-17T15:09:28;53353.97;;;-146.31;59.50
2036;BME280;23642;42.658;23.350;2024-03-17T15:12:20;53356.03;;;-146.31;59.96
2036;BME280;23642;42.658;23.350;2024-03-17T15:14:59;53339.53;;;-146.31;60.32
2036;BME280;23642;42.658;23.350;2024-03-17T15:18:03;53353.97;;;-146.31;61.07
2036;BME280;23642;42.658;23.350;2024-03-17T15:24:21;53269.34;;;-146.31;61.88
2036;BME280;23642;42.658;23.350;2024-03-17T15:26:56;53263.16;;;-146.31;62.25
2036;BME280;23642;42.658;23.350;2024-03-17T15:29:54;53238.38;;;-146.31;62.40
2036;BME280;23642;42.658;23.350;2024-03-17T15:32:28;53277.59;;;-146.31;62.48
2036;BME280;23642;42.658;23.350;2024-03-17T15:35:25;53269.34;;;-146.31;62.16
2036;BME280;23642;42.658;23.350;2024-03-17T15:38:27;53246.63;;;-146.31;62.75
2036;BME280;23642;42.658;23.350;2024-03-17T15:41:23;53261.09;;;-146.31;61.56
2036;BME280;23642;42.658;23.350;2024-03-17T15:44:21;53292.03;;;-146.31;61.75
2036;BME280;23642;42.658;23.350;2024-03-17T15:47:04;53292.03;;;-146.31;61.45
2036;BME280;23642;42.658;23.350;2024-03-17T15:49:47;53333.31;;;-146.31;61.35
2036;BME280;23642;42.658;23.350;2024-03-17T15:52:31;53349.84;;;-146.31;61.75
2036;BME280;23642;42.658;23.350;2024-03-17T15:55:28;53304.44;;;-146.31;62.04
2036;BME280;23642;42.658;23.350;2024-03-17T16:01:43;53306.50;;;-146.31;61.70
2036;BME280;23642;42.658;23.350;2024-03-17T16:04:33;53306.50;;;-146.31;61.86
2036;BME280;23642;42.658;23.350;2024-03-17T16:07:36;53273.47;;;-146.31;61.45
2036;BME280;23642;42.658;23.350;2024-03-17T16:13:39;53254.88;;;-146.31;62.98
2036;BME280;23642;42.658;23.350;2024-03-17T16:16:23;53230.13;;;-146.31;62.63
2036;BME280;23642;42.658;23.350;2024-03-17T16:22:26;53201.22;;;-146.31;63.65
2036;BME280;23642;42.658;23.350;2024-03-17T16:25:01;53186.78;;;-146.31;64.16
2036;BME280;23642;42.658;23.350;2024-03-17T16:27:49;53143.44;;;-146.31;64.60
2036;BME280;23642;42.658;23.350;2024-03-17T16:30:52;53155.81;;;-146.31;65.15
2036;BME280;23642;42.658;23.350;2024-03-17T16:33:26;53112.47;;;-146.31;65.42
2036;BME280;23642;42.658;23.350;2024-03-17T16:36:21;53081.50;;;-146.31;65.83
2036;BME280;23642;42.658;23.350;2024-03-17T16:39:24;53017.53;;;-146.31;66.50
2036;BME280;23642;42.658;23.350;2024-03-17T16:41:56;52990.69;;;-146.31;66.63
2036;BME280;23642;42.658;23.350;2024-03-17T16:47:59;52891.63;;;-146.31;66.91
2036;BME280;23642;42.658;23.350;2024-03-17T16:50:56;52866.84;;;-146.31;67.40
2036;BME280;23642;42.658;23.350;2024-03-17T16:53:49;52815.25;;;-146.31;67.32
2036;BME280;23642;42.658;23.350;2024-03-17T16:57:05;52815.25;;;-146.31;67.70
2036;BME280;23642;42.658;23.350;2024-03-17T17:00:14;52782.25;;;-146.31;67.61
2036;BME280;23642;42.658;23.350;2024-03-17T17:06:00;52726.53;;;-146.31;67.65
2036;BME280;23642;42.658;23.350;2024-03-17T17:08:44;52705.88;;;-146.31;68.25
2036;BME280;23642;42.658;23.350;2024-03-17T17:11:26;52685.25;;;-146.31;68.45
2036;BME280;23642;42.658;23.350;2024-03-17T17:14:22;52677.00;;;-146.31;68.39
2036;BME280;23642;42.658;23.350;2024-03-17T17:17:14;52650.16;;;-146.31;68.86
2036;BME280;23642;42.658;23.350;2024-03-17T17:19:58;52582.06;;;-146.31;69.23
2036;BME280;23642;42.658;23.350;2024-03-17T17:22:37;52518.09;;;-146.31;69.45
2036;BME280;23642;42.658;23.350;2024-03-17T17:25:17;52433.47;;;-146.31;69.90
2036;BME280;23642;42.658;23.350;2024-03-17T17:31:16;52237.44;;;-146.31;70.85
2036;BME280;23642;42.658;23.350;2024-03-17T17:34:06;52086.81;;;-146.31;71.77
2036;BME280;23642;42.658;23.350;2024-03-17T17:36:36;52035.22;;;-146.31;72.54
2036;BME280;23642;42.658;23.350;2024-03-17T17:39:25;51977.44;;;-146.31;72.92
2036;BME280;23642;42.658;23.350;2024-03-17T17:42:01;51919.69;;;-146.31;73.32
2036;BME280;23642;42.658;23.350;2024-03-17T17:44:46;51863.97;;;-146.31;74.36
2036;BME280;23642;42.658;23.350;2024-03-17T17:47:37;51833.03;;;-146.31;74.98
2036;BME280;23642;42.658;23.350;2024-03-17T17:50:26;51742.25;;;-146.31;76.23
2036;BME280;23642;42.658;23.350;2024-03-17T17:53:09;51655.59;;;-146.31;77.60
2036;BME280;23642;42.658;23.350;2024-03-17T17:55:55;51585.44;;;-146.31;78.52
2036;BME280;23642;42.658;23.350;2024-03-17T17:58:29;51544.19;;;-146.31;79.74
2036;BME280;23642;42.658;23.350;2024-03-17T18:00:58;51484.34;;;-146.31;79.97
2036;BME280;23642;42.658;23.350;2024-03-17T18:03:29;51476.09;;;-146.31;80.27
2036;BME280;23642;42.658;23.350;2024-03-17T18:06:08;51432.78;;;-146.31;80.70
2036;BME280;23642;42.658;23.350;2024-03-17T18:08:38;51379.13;;;-146.31;80.14
2036;BME280;23642;42.658;23.350;2024-03-17T18:11:16;51381.19;;;-146.31;80.27
2036;BME280;23642;42.658;23.350;2024-03-17T18:14:00;51397.69;;;-146.31;79.65
2036;BME280;23642;42.658;23.350;2024-03-17T18:16:34;51408.00;;;-146.31;78.95
2036;BME280;23642;42.658;23.350;2024-03-17T18:19:12;51408.00;;;-146.31;78.87
2036;BME280;23642;42.658;23.350;2024-03-17T18:21:48;51414.22;;;-146.31;78.39
2036;BME280;23642;42.658;23.350;2024-03-17T18:24:15;51426.59;;;-146.31;77.62
2036;BME280;23642;42.658;23.350;2024-03-17T18:26:47;51426.59;;;-146.31;78.02
2036;BME280;23642;42.658;23.350;2024-03-17T18:29:16;51391.50;;;-146.31;79.15
2036;BME280;23642;42.658;23.350;2024-03-17T18:32:00;51410.06;;;-146.31;79.17
2036;BME280;23642;42.658;23.350;2024-03-17T18:34:32;51366.75;;;-146.31;79.85
2036;BME280;23642;42.658;23.350;2024-03-17T18:37:18;51352.31;;;-146.31;79.57